sensor_id;sensor_type;location;lat;lon;timestamp;temperature;humidity
61016;DHT22;46902;52.920;6.536;2023-03-01T00:01:24;1.80;96.70
61016;DHT22;46902;52.920;6.536;2023-03-01T00:03:49;1.80;96.80
61016;DHT22;46902;52.920;6.536;2023-03-01T00:06:15;1.80;96.90
61016;DHT22;46902;52.920;6.536;2023-03-01T00:08:40;1.80;96.90
61016;DHT22;46902;52.920;6.536;2023-03-01T00:11:27;1.70;97.30
61016;DHT22;46902;52.920;6.536;2023-03-01T00:13:56;1.70;97.60
61016;DHT22;46902;52.920;6.536;2023-03-01T00:16:25;1.60;97.60
61016;DHT22;46902;52.920;6.536;2023-03-01T00:18:51;1.60;97.60
61016;DHT22;46902;52.920;6.536;2023-03-01T00:21:17;1.60;97.60
61016;DHT22;46902;52.920;6.536;2023-03-01T00:23:45;1.60;97.70
61016;DHT22;46902;52.920;6.536;2023-03-01T00:26:12;1.60;97.90
61016;DHT22;46902;52.920;6.536;2023-03-01T00:28:38;1.60;98.20
61016;DHT22;46902;52.920;6.536;2023-03-01T00:31:09;1.50;98.10
61016;DHT22;46902;52.920;6.536;2023-03-01T00:33:35;1.60;98.10
61016;DHT22;46902;52.920;6.536;2023-03-01T00:36:01;1.60;98.30
61016;DHT22;46902;52.920;6.536;2023-03-01T00:38:27;1.60;98.40
61016;DHT22;46902;52.920;6.536;2023-03-01T00:40:53;1.60;98.60
61016;DHT22;46902;52.920;6.536;2023-03-01T00:43:19;1.60;98.80
61016;DHT22;46902;52.920;6.536;2023-03-01T00:45:45;1.60;98.90
61016;DHT22;46902;52.920;6.536;2023-03-01T00:48:10;1.60;99.10
61016;DHT22;46902;52.920;6.536;2023-03-01T00:50:36;1.60;99.30
61016;DHT22;46902;52.920;6.536;2023-03-01T00:53:02;1.70;99.50
61016;DHT22;46902;52.920;6.536;2023-03-01T00:55:30;1.70;99.60
61016;DHT22;46902;52.920;6.536;2023-03-01T00:57:56;1.70;99.90
61016;DHT22;46902;52.920;6.536;2023-03-01T01:00:21;1.70;99.90
61016;DHT22;46902;52.920;6.536;2023-03-01T01:02:47;1.70;99.90
61016;DHT22;46902;52.920;6.536;2023-03-01T01:05:13;1.70;99.90
61016;DHT22;46902;52.920;6.536;2023-03-01T01:07:39;1.70;99.90
61016;DHT22;46902;52.920;6.536;2023-03-01T01:10:05;1.70;99.90
61016;DHT22;46902;52.920;6.536;2023-03-01T01:12:32;1.70;99.90
61016;DHT22;46902;52.920;6.536;2023-03-01T01:14:57;1.70;99.90
61016;DHT22;46902;52.920;6.536;2023-03-01T01:17:23;1.70;99.90
61016;DHT22;46902;52.920;6.536;2023-03-01T01:19:49;1.70;99.90
61016;DHT22;46902;52.920;6.536;2023-03-01T01:22:14;1.60;99.90
61016;DHT22;46902;52.920;6.536;2023-03-01T01:24:40;1.60;99.90
61016;DHT22;46902;52.920;6.536;2023-03-01T01:27:05;1.60;99.90
61016;DHT22;46902;52.920;6.536;2023-03-01T01:29:32;1.60;99.90
61016;DHT22;46902;52.920;6.536;2023-03-01T01:31:58;1.60;99.90
61016;DHT22;46902;52.920;6.536;2023-03-01T01:34:24;1.50;99.90
61016;DHT22;46902;52.920;6.536;2023-03-01T01:36:51;1.50;99.90
61016;DHT22;46902;52.920;6.536;2023-03-01T01:39:20;1.50;99.90
61016;DHT22;46902;52.920;6.536;2023-03-01T01:41:46;1.50;99.90
61016;DHT22;46902;52.920;6.536;2023-03-01T01:46:39;1.40;99.90
61016;DHT22;46902;52.920;6.536;2023-03-01T01:52:34;1.40;99.90
61016;DHT22;46902;52.920;6.536;2023-03-01T01:55:06;1.30;99.90
61016;DHT22;46902;52.920;6.536;2023-03-01T01:57:36;1.30;99.90
61016;DHT22;46902;52.920;6.536;2023-03-01T02:00:09;1.20;99.90
61016;DHT22;46902;52.920;6.536;2023-03-01T02:02:37;1.20;99.90
61016;DHT22;46902;52.920;6.536;2023-03-01T02:05:11;1.10;99.90
61016;DHT22;46902;52.920;6.536;2023-03-01T02:07:39;1.10;99.90
61016;DHT22;46902;52.920;6.536;2023-03-01T02:10:05;1.00;99.90
61016;DHT22;46902;52.920;6.536;2023-03-01T02:12:31;0.90;99.90
61016;DHT22;46902;52.920;6.536;2023-03-01T02:14:57;0.90;99.90
61016;DHT22;46902;52.920;6.536;2023-03-01T02:17:23;0.80;99.90
61016;DHT22;46902;52.920;6.536;2023-03-01T02:22:31;0.70;99.90
61016;DHT22;46902;52.920;6.536;2023-03-01T02:28:03;0.60;99.90
61016;DHT22;46902;52.920;6.536;2023-03-01T02:30:31;0.50;99.90
61016;DHT22;46902;52.920;6.536;2023-03-01T02:32:59;0.40;99.90
61016;DHT22;46902;52.920;6.536;2023-03-01T02:35:38;0.30;99.90
61016;DHT22;46902;52.920;6.536;2023-03-01T02:38:07;0.30;99.90
61016;DHT22;46902;52.920;6.536;2023-03-01T02:40:34;0.30;99.90
61016;DHT22;46902;52.920;6.536;2023-03-01T02:43:04;0.30;99.90
61016;DHT22;46902;52.920;6.536;2023-03-01T02:45:31;0.30;99.90
61016;DHT22;46902;52.920;6.536;2023-03-01T02:47:57;0.30;99.90
61016;DHT22;46902;52.920;6.536;2023-03-01T02:55:29;0.20;99.90
61016;DHT22;46902;52.920;6.536;2023-03-01T02:57:55;0.20;99.90
61016;DHT22;46902;52.920;6.536;2023-03-01T03:00:24;0.20;99.90
61016;DHT22;46902;52.920;6.536;2023-03-01T03:02:52;0.10;99.90
61016;DHT22;46902;52.920;6.536;2023-03-01T03:05:21;0.10;99.90
61016;DHT22;46902;52.920;6.536;2023-03-01T03:07:48;0.00;99.90
61016;DHT22;46902;52.920;6.536;2023-03-01T03:10:21;-0.10;99.90
61016;DHT22;46902;52.920;6.536;2023-03-01T03:12:56;-0.10;99.90
61016;DHT22;46902;52.920;6.536;2023-03-01T03:15:23;-0.20;99.90
61016;DHT22;46902;52.920;6.536;2023-03-01T03:17:51;-0.20;99.90
61016;DHT22;46902;52.920;6.536;2023-03-01T03:20:21;-0.30;99.90
61016;DHT22;46902;52.920;6.536;2023-03-01T03:22:49;-0.20;99.90
61016;DHT22;46902;52.920;6.536;2023-03-01T03:25:16;-0.30;99.90
61016;DHT22;46902;52.920;6.536;2023-03-01T03:27:44;-0.30;99.90
61016;DHT22;46902;52.920;6.536;2023-03-01T03:30:12;-0.30;99.90
61016;DHT22;46902;52.920;6.536;2023-03-01T03:32:43;-0.40;99.90
61016;DHT22;46902;52.920;6.536;2023-03-01T03:35:28;-0.30;99.90
61016;DHT22;46902;52.920;6.536;2023-03-01T03:37:57;-0.30;99.90
61016;DHT22;46902;52.920;6.536;2023-03-01T03:40:35;-0.40;99.90
61016;DHT22;46902;52.920;6.536;2023-03-01T03:43:02;-0.40;99.90
61016;DHT22;46902;52.920;6.536;2023-03-01T03:45:29;-0.40;99.90
61016;DHT22;46902;52.920;6.536;2023-03-01T03:47:55;-0.50;99.90
61016;DHT22;46902;52.920;6.536;2023-03-01T03:50:20;-0.50;99.90
61016;DHT22;46902;52.920;6.536;2023-03-01T03:52:47;-0.50;99.90
61016;DHT22;46902;52.920;6.536;2023-03-01T03:55:13;-0.50;99.90
61016;DHT22;46902;52.920;6.536;2023-03-01T03:57:40;-0.40;99.90
61016;DHT22;46902;52.920;6.536;2023-03-01T04:00:08;-0.50;99.90
61016;DHT22;46902;52.920;6.536;2023-03-01T04:02:41;-0.50;99.90
61016;DHT22;46902;52.920;6.536;2023-03-01T04:05:09;-0.50;99.90
61016;DHT22;46902;52.920;6.536;2023-03-01T04:07:35;-0.50;99.90
61016;DHT22;46902;52.920;6.536;2023-03-01T04:10:03;-0.50;99.90
61016;DHT22;46902;52.920;6.536;2023-03-01T04:12:29;-0.50;99.90
61016;DHT22;46902;52.920;6.536;2023-03-01T04:14:54;-0.50;99.90
61016;DHT22;46902;52.920;6.536;2023-03-01T04:17:20;-0.50;99.90
61016;DHT22;46902;52.920;6.536;2023-03-01T04:19:45;-0.50;99.90
61016;DHT22;46902;52.920;6.536;2023-03-01T04:22:14;-0.50;99.90
61016;DHT22;46902;52.920;6.536;2023-03-01T04:24:44;-0.50;99.90
61016;DHT22;46902;52.920;6.536;2023-03-01T04:27:11;-0.60;99.90
61016;DHT22;46902;52.920;6.536;2023-03-01T04:29:37;-0.50;99.90
61016;DHT22;46902;52.920;6.536;2023-03-01T04:32:02;-0.50;99.90
61016;DHT22;46902;52.920;6.536;2023-03-01T04:34:29;-0.60;99.90
61016;DHT22;46902;52.920;6.536;2023-03-01T04:36:54;-0.50;99.90
61016;DHT22;46902;52.920;6.536;2023-03-01T04:39:21;-0.60;99.90
61016;DHT22;46902;52.920;6.536;2023-03-01T04:41:47;-0.60;99.90
61016;DHT22;46902;52.920;6.536;2023-03-01T04:44:12;-0.60;99.90
61016;DHT22;46902;52.920;6.536;2023-03-01T04:46:38;-0.60;99.90
61016;DHT22;46902;52.920;6.536;2023-03-01T04:49:04;-0.60;99.90
61016;DHT22;46902;52.920;6.536;2023-03-01T04:51:30;-0.60;99.90
61016;DHT22;46902;52.920;6.536;2023-03-01T04:53:58;-0.60;99.90
61016;DHT22;46902;52.920;6.536;2023-03-01T04:56:23;-0.70;99.90
61016;DHT22;46902;52.920;6.536;2023-03-01T04:58:49;-0.70;99.90
61016;DHT22;46902;52.920;6.536;2023-03-01T05:01:18;-0.70;99.90
61016;DHT22;46902;52.920;6.536;2023-03-01T05:03:47;-0.70;99.90
61016;DHT22;46902;52.920;6.536;2023-03-01T05:06:14;-0.80;99.90
61016;DHT22;46902;52.920;6.536;2023-03-01T05:08:41;-0.70;99.90
61016;DHT22;46902;52.920;6.536;2023-03-01T05:11:07;-0.80;99.90
61016;DHT22;46902;52.920;6.536;2023-03-01T05:13:38;-0.80;99.90
61016;DHT22;46902;52.920;6.536;2023-03-01T05:16:05;-0.80;99.90
61016;DHT22;46902;52.920;6.536;2023-03-01T05:18:33;-0.90;99.90
61016;DHT22;46902;52.920;6.536;2023-03-01T05:21:17;-0.90;99.90
61016;DHT22;46902;52.920;6.536;2023-03-01T05:23:43;-0.80;99.90
61016;DHT22;46902;52.920;6.536;2023-03-01T05:26:09;-0.90;99.90
61016;DHT22;46902;52.920;6.536;2023-03-01T05:28:34;-0.90;99.90
61016;DHT22;46902;52.920;6.536;2023-03-01T05:31:00;-0.90;99.90
61016;DHT22;46902;52.920;6.536;2023-03-01T05:33:27;-0.90;99.90
61016;DHT22;46902;52.920;6.536;2023-03-01T05:35:53;-0.90;99.90
61016;DHT22;46902;52.920;6.536;2023-03-01T05:38:20;-0.90;99.90
61016;DHT22;46902;52.920;6.536;2023-03-01T05:40:47;-1.00;99.90
61016;DHT22;46902;52.920;6.536;2023-03-01T05:43:15;-1.00;99.90
61016;DHT22;46902;52.920;6.536;2023-03-01T05:45:41;-1.00;99.90
61016;DHT22;46902;52.920;6.536;2023-03-01T05:48:08;-1.00;99.90
61016;DHT22;46902;52.920;6.536;2023-03-01T05:50:36;-1.00;99.90
61016;DHT22;46902;52.920;6.536;2023-03-01T05:53:22;-1.00;99.90
61016;DHT22;46902;52.920;6.536;2023-03-01T05:55:48;-1.00;99.90
61016;DHT22;46902;52.920;6.536;2023-03-01T05:58:18;-1.10;99.90
61016;DHT22;46902;52.920;6.536;2023-03-01T06:00:45;-1.10;99.90
61016;DHT22;46902;52.920;6.536;2023-03-01T06:03:13;-1.10;99.90
61016;DHT22;46902;52.920;6.536;2023-03-01T06:05:39;-1.20;99.90
61016;DHT22;46902;52.920;6.536;2023-03-01T06:08:05;-1.20;99.90
61016;DHT22;46902;52.920;6.536;2023-03-01T06:10:31;-1.20;99.90
61016;DHT22;46902;52.920;6.536;2023-03-01T06:12:56;-1.20;99.90
61016;DHT22;46902;52.920;6.536;2023-03-01T06:15:23;-1.20;99.90
61016;DHT22;46902;52.920;6.536;2023-03-01T06:17:49;-1.10;99.90
61016;DHT22;46902;52.920;6.536;2023-03-01T06:20:23;-1.20;99.90
61016;DHT22;46902;52.920;6.536;2023-03-01T06:22:49;-1.10;99.90
61016;DHT22;46902;52.920;6.536;2023-03-01T06:25:18;-1.20;99.90
61016;DHT22;46902;52.920;6.536;2023-03-01T06:27:44;-1.10;99.90
61016;DHT22;46902;52.920;6.536;2023-03-01T06:30:12;-1.20;99.90
61016;DHT22;46902;52.920;6.536;2023-03-01T06:32:39;-1.10;99.90
61016;DHT22;46902;52.920;6.536;2023-03-01T06:35:08;-1.10;99.90
61016;DHT22;46902;52.920;6.536;2023-03-01T06:37:34;-1.10;99.90
61016;DHT22;46902;52.920;6.536;2023-03-01T06:40:01;-1.20;99.90
61016;DHT22;46902;52.920;6.536;2023-03-01T06:42:32;-1.20;99.90
61016;DHT22;46902;52.920;6.536;2023-03-01T06:44:57;-1.20;99.90
61016;DHT22;46902;52.920;6.536;2023-03-01T06:47:23;-1.20;99.90
61016;DHT22;46902;52.920;6.536;2023-03-01T06:49:49;-1.20;99.90
61016;DHT22;46902;52.920;6.536;2023-03-01T06:52:14;-1.20;99.90
61016;DHT22;46902;52.920;6.536;2023-03-01T06:54:40;-1.20;99.90
61016;DHT22;46902;52.920;6.536;2023-03-01T06:57:05;-1.30;99.90
61016;DHT22;46902;52.920;6.536;2023-03-01T06:59:31;-1.20;99.90
61016;DHT22;46902;52.920;6.536;2023-03-01T07:01:56;-1.20;99.90
61016;DHT22;46902;52.920;6.536;2023-03-01T07:04:22;-1.20;99.90
61016;DHT22;46902;52.920;6.536;2023-03-01T07:06:48;-1.20;99.90
61016;DHT22;46902;52.920;6.536;2023-03-01T07:09:23;-1.20;99.90
61016;DHT22;46902;52.920;6.536;2023-03-01T07:11:49;-1.10;99.90
61016;DHT22;46902;52.920;6.536;2023-03-01T07:14:15;-1.10;99.90
61016;DHT22;46902;52.920;6.536;2023-03-01T07:16:41;-1.10;99.90
61016;DHT22;46902;52.920;6.536;2023-03-01T07:19:06;-1.00;99.90
61016;DHT22;46902;52.920;6.536;2023-03-01T07:21:32;-1.00;99.90
61016;DHT22;46902;52.920;6.536;2023-03-01T07:23:57;-0.90;99.90
61016;DHT22;46902;52.920;6.536;2023-03-01T07:26:23;-0.90;99.90
61016;DHT22;46902;52.920;6.536;2023-03-01T07:28:49;-0.90;99.90
61016;DHT22;46902;52.920;6.536;2023-03-01T07:31:14;-0.80;99.90
61016;DHT22;46902;52.920;6.536;2023-03-01T07:33:40;-0.80;99.90
61016;DHT22;46902;52.920;6.536;2023-03-01T07:36:06;-0.70;99.90
61016;DHT22;46902;52.920;6.536;2023-03-01T07:38:32;-0.60;99.90
61016;DHT22;46902;52.920;6.536;2023-03-01T07:41:02;-0.50;99.90
61016;DHT22;46902;52.920;6.536;2023-03-01T07:43:29;-0.50;99.90
61016;DHT22;46902;52.920;6.536;2023-03-01T07:45:58;-0.40;99.90
61016;DHT22;46902;52.920;6.536;2023-03-01T07:48:24;-0.30;99.90
61016;DHT22;46902;52.920;6.536;2023-03-01T07:50:49;-0.30;99.90
61016;DHT22;46902;52.920;6.536;2023-03-01T07:53:15;-0.20;99.90
61016;DHT22;46902;52.920;6.536;2023-03-01T07:55:40;-0.10;99.90
61016;DHT22;46902;52.920;6.536;2023-03-01T07:58:06;-0.10;99.90
61016;DHT22;46902;52.920;6.536;2023-03-01T08:00:31;0.00;99.90
61016;DHT22;46902;52.920;6.536;2023-03-01T08:03:01;0.00;99.90
61016;DHT22;46902;52.920;6.536;2023-03-01T08:05:27;0.10;99.90
61016;DHT22;46902;52.920;6.536;2023-03-01T08:07:53;0.20;99.90
61016;DHT22;46902;52.920;6.536;2023-03-01T08:10:19;0.20;99.90
61016;DHT22;46902;52.920;6.536;2023-03-01T08:12:45;0.30;99.90
61016;DHT22;46902;52.920;6.536;2023-03-01T08:15:12;0.30;99.90
61016;DHT22;46902;52.920;6.536;2023-03-01T08:17:37;0.50;99.90
61016;DHT22;46902;52.920;6.536;2023-03-01T08:20:03;0.60;99.90
61016;DHT22;46902;52.920;6.536;2023-03-01T08:22:32;0.70;99.90
61016;DHT22;46902;52.920;6.536;2023-03-01T08:24:58;0.80;99.90
61016;DHT22;46902;52.920;6.536;2023-03-01T08:27:23;0.90;99.90
61016;DHT22;46902;52.920;6.536;2023-03-01T08:29:49;1.00;99.90
61016;DHT22;46902;52.920;6.536;2023-03-01T08:32:14;1.10;99.90
61016;DHT22;46902;52.920;6.536;2023-03-01T08:34:40;1.20;99.90
61016;DHT22;46902;52.920;6.536;2023-03-01T08:37:05;1.30;99.90
61016;DHT22;46902;52.920;6.536;2023-03-01T08:39:31;1.40;99.90
61016;DHT22;46902;52.920;6.536;2023-03-01T08:41:57;1.50;99.90
61016;DHT22;46902;52.920;6.536;2023-03-01T08:44:22;1.60;99.90
61016;DHT22;46902;52.920;6.536;2023-03-01T08:46:48;1.70;99.90
61016;DHT22;46902;52.920;6.536;2023-03-01T08:49:19;1.90;99.90
61016;DHT22;46902;52.920;6.536;2023-03-01T08:51:46;2.20;99.90
61016;DHT22;46902;52.920;6.536;2023-03-01T08:54:14;3.10;99.90
61016;DHT22;46902;52.920;6.536;2023-03-01T08:56:41;4.80;99.90
61016;DHT22;46902;52.920;6.536;2023-03-01T08:59:07;6.40;99.90
61016;DHT22;46902;52.920;6.536;2023-03-01T09:01:33;7.70;99.90
61016;DHT22;46902;52.920;6.536;2023-03-01T09:03:59;9.00;99.90
61016;DHT22;46902;52.920;6.536;2023-03-01T09:06:24;9.80;97.40
61016;DHT22;46902;52.920;6.536;2023-03-01T09:08:50;10.70;95.00
61016;DHT22;46902;52.920;6.536;2023-03-01T09:11:21;11.20;92.60
61016;DHT22;46902;52.920;6.536;2023-03-01T09:13:48;11.50;90.70
61016;DHT22;46902;52.920;6.536;2023-03-01T09:16:15;11.70;89.90
61016;DHT22;46902;52.920;6.536;2023-03-01T09:18:42;11.60;88.30
61016;DHT22;46902;52.920;6.536;2023-03-01T09:21:13;11.50;87.40
61016;DHT22;46902;52.920;6.536;2023-03-01T09:23:41;11.50;86.30
61016;DHT22;46902;52.920;6.536;2023-03-01T09:26:09;11.60;85.60
61016;DHT22;46902;52.920;6.536;2023-03-01T09:28:36;11.90;84.80
61016;DHT22;46902;52.920;6.536;2023-03-01T09:31:02;12.10;83.60
61016;DHT22;46902;52.920;6.536;2023-03-01T09:33:30;12.10;82.80
61016;DHT22;46902;52.920;6.536;2023-03-01T09:36:07;12.30;81.80
61016;DHT22;46902;52.920;6.536;2023-03-01T09:38:33;12.70;80.80
61016;DHT22;46902;52.920;6.536;2023-03-01T09:41:00;13.10;79.30
61016;DHT22;46902;52.920;6.536;2023-03-01T09:43:46;13.40;77.90
61016;DHT22;46902;52.920;6.536;2023-03-01T09:46:14;13.70;76.70
61016;DHT22;46902;52.920;6.536;2023-03-01T09:48:48;14.10;75.00
61016;DHT22;46902;52.920;6.536;2023-03-01T09:51:19;14.70;71.60
61016;DHT22;46902;52.920;6.536;2023-03-01T09:53:49;15.30;69.90
61016;DHT22;46902;52.920;6.536;2023-03-01T09:56:22;15.80;68.00
61016;DHT22;46902;52.920;6.536;2023-03-01T10:01:35;16.70;64.40
61016;DHT22;46902;52.920;6.536;2023-03-01T10:04:23;17.10;62.70
61016;DHT22;46902;52.920;6.536;2023-03-01T10:09:40;17.60;59.70
61016;DHT22;46902;52.920;6.536;2023-03-01T10:12:30;17.80;57.70
61016;DHT22;46902;52.920;6.536;2023-03-01T10:15:05;17.90;56.40
61016;DHT22;46902;52.920;6.536;2023-03-01T10:17:34;18.10;54.90
61016;DHT22;46902;52.920;6.536;2023-03-01T10:20:18;18.30;54.40
61016;DHT22;46902;52.920;6.536;2023-03-01T10:22:43;18.30;50.80
61016;DHT22;46902;52.920;6.536;2023-03-01T10:25:17;18.50;52.30
61016;DHT22;46902;52.920;6.536;2023-03-01T10:27:49;18.60;51.60
61016;DHT22;46902;52.920;6.536;2023-03-01T10:30:20;18.80;50.10
61016;DHT22;46902;52.920;6.536;2023-03-01T10:32:49;18.90;48.60
61016;DHT22;46902;52.920;6.536;2023-03-01T10:35:23;19.00;48.30
61016;DHT22;46902;52.920;6.536;2023-03-01T10:40:27;19.20;47.90
61016;DHT22;46902;52.920;6.536;2023-03-01T10:42:53;19.30;47.80
61016;DHT22;46902;52.920;6.536;2023-03-01T10:45:38;19.30;48.00
61016;DHT22;46902;52.920;6.536;2023-03-01T10:48:13;19.30;47.40
61016;DHT22;46902;52.920;6.536;2023-03-01T10:50:41;19.30;47.80
61016;DHT22;46902;52.920;6.536;2023-03-01T10:53:35;19.40;47.20
61016;DHT22;46902;52.920;6.536;2023-03-01T10:56:13;19.60;47.90
61016;DHT22;46902;52.920;6.536;2023-03-01T11:04:16;19.60;46.30
61016;DHT22;46902;52.920;6.536;2023-03-01T11:06:43;19.80;46.70
61016;DHT22;46902;52.920;6.536;2023-03-01T11:09:20;19.90;45.40
61016;DHT22;46902;52.920;6.536;2023-03-01T11:11:51;19.80;44.80
61016;DHT22;46902;52.920;6.536;2023-03-01T11:14:20;19.70;45.20
61016;DHT22;46902;52.920;6.536;2023-03-01T11:17:03;19.30;45.20
61016;DHT22;46902;52.920;6.536;2023-03-01T11:19:32;19.00;45.20
61016;DHT22;46902;52.920;6.536;2023-03-01T11:22:05;18.80;45.90
61016;DHT22;46902;52.920;6.536;2023-03-01T11:24:45;18.40;45.60
61016;DHT22;46902;52.920;6.536;2023-03-01T11:27:18;17.90;46.00
61016;DHT22;46902;52.920;6.536;2023-03-01T11:30:05;17.60;46.20
61016;DHT22;46902;52.920;6.536;2023-03-01T11:32:38;17.40;46.90
61016;DHT22;46902;52.920;6.536;2023-03-01T11:35:22;17.20;47.10
61016;DHT22;46902;52.920;6.536;2023-03-01T11:40:39;17.00;47.40
61016;DHT22;46902;52.920;6.536;2023-03-01T11:45:52;16.90;47.80
61016;DHT22;46902;52.920;6.536;2023-03-01T11:51:20;17.00;48.10
61016;DHT22;46902;52.920;6.536;2023-03-01T11:54:11;16.90;47.60
61016;DHT22;46902;52.920;6.536;2023-03-01T11:56:52;16.90;48.10
61016;DHT22;46902;52.920;6.536;2023-03-01T11:59:33;16.80;48.70
61016;DHT22;46902;52.920;6.536;2023-03-01T12:05:02;16.40;48.80
61016;DHT22;46902;52.920;6.536;2023-03-01T12:13:02;16.00;49.20
61016;DHT22;46902;52.920;6.536;2023-03-01T12:15:45;16.00;48.80
61016;DHT22;46902;52.920;6.536;2023-03-01T12:18:28;15.90;50.20
61016;DHT22;46902;52.920;6.536;2023-03-01T12:30:17;16.20;51.30
61016;DHT22;46902;52.920;6.536;2023-03-01T12:33:04;16.40;50.60
61016;DHT22;46902;52.920;6.536;2023-03-01T12:39:03;16.40;50.40
61016;DHT22;46902;52.920;6.536;2023-03-01T12:41:58;16.30;49.90
61016;DHT22;46902;52.920;6.536;2023-03-01T12:50:23;16.20;50.80
61016;DHT22;46902;52.920;6.536;2023-03-01T12:57:58;16.50;50.40
61016;DHT22;46902;52.920;6.536;2023-03-01T13:00:30;16.60;50.10
61016;DHT22;46902;52.920;6.536;2023-03-01T13:03:00;16.50;50.10
61016;DHT22;46902;52.920;6.536;2023-03-01T13:05:40;16.60;50.80
61016;DHT22;46902;52.920;6.536;2023-03-01T13:11:02;16.40;50.70
61016;DHT22;46902;52.920;6.536;2023-03-01T13:13:29;16.40;52.00
61016;DHT22;46902;52.920;6.536;2023-03-01T13:15:55;16.50;50.80
61016;DHT22;46902;52.920;6.536;2023-03-01T13:20:55;16.50;50.60
61016;DHT22;46902;52.920;6.536;2023-03-01T13:26:08;16.40;50.10
61016;DHT22;46902;52.920;6.536;2023-03-01T13:28:49;16.30;50.40
61016;DHT22;46902;52.920;6.536;2023-03-01T13:36:13;16.00;50.50
61016;DHT22;46902;52.920;6.536;2023-03-01T13:39:28;16.00;51.50
61016;DHT22;46902;52.920;6.536;2023-03-01T13:41:56;16.10;51.10
61016;DHT22;46902;52.920;6.536;2023-03-01T13:50:15;16.10;52.20
61016;DHT22;46902;52.920;6.536;2023-03-01T13:52:42;16.00;51.60
61016;DHT22;46902;52.920;6.536;2023-03-01T13:57:42;15.90;51.60
61016;DHT22;46902;52.920;6.536;2023-03-01T14:00:28;15.70;51.50
61016;DHT22;46902;52.920;6.536;2023-03-01T14:03:20;15.70;52.40
61016;DHT22;46902;52.920;6.536;2023-03-01T14:06:03;15.50;51.50
61016;DHT22;46902;52.920;6.536;2023-03-01T14:08:30;15.40;52.00
61016;DHT22;46902;52.920;6.536;2023-03-01T14:16:51;15.40;52.00
61016;DHT22;46902;52.920;6.536;2023-03-01T14:19:25;15.60;52.10
61016;DHT22;46902;52.920;6.536;2023-03-01T14:22:20;15.70;52.00
61016;DHT22;46902;52.920;6.536;2023-03-01T14:24:55;15.90;51.70
61016;DHT22;46902;52.920;6.536;2023-03-01T14:27:25;15.80;51.00
61016;DHT22;46902;52.920;6.536;2023-03-01T14:29:57;15.70;50.70
61016;DHT22;46902;52.920;6.536;2023-03-01T14:32:28;15.60;50.30
61016;DHT22;46902;52.920;6.536;2023-03-01T14:34:54;15.60;50.50
61016;DHT22;46902;52.920;6.536;2023-03-01T14:37:29;15.40;50.70
61016;DHT22;46902;52.920;6.536;2023-03-01T14:39:56;15.30;50.40
61016;DHT22;46902;52.920;6.536;2023-03-01T14:42:25;15.10;51.10
61016;DHT22;46902;52.920;6.536;2023-03-01T14:44:54;14.90;51.30
61016;DHT22;46902;52.920;6.536;2023-03-01T14:47:35;14.80;51.70
61016;DHT22;46902;52.920;6.536;2023-03-01T14:50:09;14.70;52.30
61016;DHT22;46902;52.920;6.536;2023-03-01T14:52:42;14.50;51.80
61016;DHT22;46902;52.920;6.536;2023-03-01T14:55:31;14.30;52.10
61016;DHT22;46902;52.920;6.536;2023-03-01T14:57:58;14.20;51.50
61016;DHT22;46902;52.920;6.536;2023-03-01T15:00:29;13.90;52.10
61016;DHT22;46902;52.920;6.536;2023-03-01T15:02:58;13.70;52.80
61016;DHT22;46902;52.920;6.536;2023-03-01T15:05:35;13.50;53.30
61016;DHT22;46902;52.920;6.536;2023-03-01T15:08:03;13.40;53.50
61016;DHT22;46902;52.920;6.536;2023-03-01T15:10:35;13.20;54.10
61016;DHT22;46902;52.920;6.536;2023-03-01T15:13:24;13.20;54.60
61016;DHT22;46902;52.920;6.536;2023-03-01T15:15:51;13.10;54.80
61016;DHT22;46902;52.920;6.536;2023-03-01T15:18:19;12.90;54.60
61016;DHT22;46902;52.920;6.536;2023-03-01T15:20:47;12.70;54.90
61016;DHT22;46902;52.920;6.536;2023-03-01T15:23:27;12.50;55.80
61016;DHT22;46902;52.920;6.536;2023-03-01T15:25:54;12.40;56.70
61016;DHT22;46902;52.920;6.536;2023-03-01T15:28:26;12.30;57.10
61016;DHT22;46902;52.920;6.536;2023-03-01T15:30:55;12.20;57.60
61016;DHT22;46902;52.920;6.536;2023-03-01T15:35:53;11.90;58.20
61016;DHT22;46902;52.920;6.536;2023-03-01T15:38:50;11.80;58.10
61016;DHT22;46902;52.920;6.536;2023-03-01T15:41:27;11.70;58.40
61016;DHT22;46902;52.920;6.536;2023-03-01T15:43:56;11.60;58.80
61016;DHT22;46902;52.920;6.536;2023-03-01T15:46:23;11.40;59.00
61016;DHT22;46902;52.920;6.536;2023-03-01T15:48:53;11.30;59.60
61016;DHT22;46902;52.920;6.536;2023-03-01T15:51:27;11.20;60.10
61016;DHT22;46902;52.920;6.536;2023-03-01T15:53:54;11.10;60.40
61016;DHT22;46902;52.920;6.536;2023-03-01T15:56:20;11.00;60.60
61016;DHT22;46902;52.920;6.536;2023-03-01T15:58:46;11.00;61.20
61016;DHT22;46902;52.920;6.536;2023-03-01T16:01:19;10.90;61.50
61016;DHT22;46902;52.920;6.536;2023-03-01T16:03:45;10.90;61.80
61016;DHT22;46902;52.920;6.536;2023-03-01T16:06:11;10.70;61.80
61016;DHT22;46902;52.920;6.536;2023-03-01T16:08:37;10.60;62.30
61016;DHT22;46902;52.920;6.536;2023-03-01T16:11:05;10.60;62.50
61016;DHT22;46902;52.920;6.536;2023-03-01T16:13:34;10.60;62.90
61016;DHT22;46902;52.920;6.536;2023-03-01T16:15:59;10.50;63.00
61016;DHT22;46902;52.920;6.536;2023-03-01T16:18:25;10.50;63.40
61016;DHT22;46902;52.920;6.536;2023-03-01T16:20:51;10.40;63.80
61016;DHT22;46902;52.920;6.536;2023-03-01T16:23:16;10.40;64.20
61016;DHT22;46902;52.920;6.536;2023-03-01T16:25:42;10.30;64.40
61016;DHT22;46902;52.920;6.536;2023-03-01T16:28:07;10.20;64.90
61016;DHT22;46902;52.920;6.536;2023-03-01T16:30:37;10.20;65.40
61016;DHT22;46902;52.920;6.536;2023-03-01T16:33:04;10.10;65.70
61016;DHT22;46902;52.920;6.536;2023-03-01T16:35:33;10.10;65.90
61016;DHT22;46902;52.920;6.536;2023-03-01T16:38:04;10.10;66.30
61016;DHT22;46902;52.920;6.536;2023-03-01T16:40:30;10.00;66.70
61016;DHT22;46902;52.920;6.536;2023-03-01T16:42:56;9.90;67.00
61016;DHT22;46902;52.920;6.536;2023-03-01T16:45:32;9.90;67.50
61016;DHT22;46902;52.920;6.536;2023-03-01T16:47:58;9.80;67.60
61016;DHT22;46902;52.920;6.536;2023-03-01T16:50:24;9.70;67.60
61016;DHT22;46902;52.920;6.536;2023-03-01T16:52:50;9.60;67.50
61016;DHT22;46902;52.920;6.536;2023-03-01T16:55:16;9.50;68.00
61016;DHT22;46902;52.920;6.536;2023-03-01T16:57:41;9.40;68.40
61016;DHT22;46902;52.920;6.536;2023-03-01T17:00:13;9.40;68.70
61016;DHT22;46902;52.920;6.536;2023-03-01T17:02:40;9.40;69.20
61016;DHT22;46902;52.920;6.536;2023-03-01T17:05:07;9.30;69.40
61016;DHT22;46902;52.920;6.536;2023-03-01T17:07:33;9.20;69.70
61016;DHT22;46902;52.920;6.536;2023-03-01T17:10:05;9.10;70.20
61016;DHT22;46902;52.920;6.536;2023-03-01T17:12:31;9.10;70.70
61016;DHT22;46902;52.920;6.536;2023-03-01T17:14:58;9.00;71.00
61016;DHT22;46902;52.920;6.536;2023-03-01T17:17:23;8.90;71.20
61016;DHT22;46902;52.920;6.536;2023-03-01T17:19:49;8.80;71.40
61016;DHT22;46902;52.920;6.536;2023-03-01T17:22:15;8.80;71.80
61016;DHT22;46902;52.920;6.536;2023-03-01T17:24:42;8.70;72.20
61016;DHT22;46902;52.920;6.536;2023-03-01T17:27:09;8.70;72.30
61016;DHT22;46902;52.920;6.536;2023-03-01T17:29:36;8.60;72.40